Time;durP1;ratioP1;P1;durP2;ratioP2;P2;SDS_P1;SDS_P2;PMS_P1;PMS_P2;Temp;Humidity;BMP_temperature;BMP_pressure;BME280_temperature;BME280_humidity;BME280_pressure;Samples;Min_cycle;Max_cycle;Signal;HPM_P1;HPM_P2
2021/06/04 00:01:18;;;;;;;2.92;2.67;;;;;;;;;;4988798;28;21674;-81
2021/06/04 00:03:44;;;;;;;3.28;2.90;;;;;;;;;;5007676;28;20207;-81
2021/06/04 00:06:10;;;;;;;4.03;2.90;;;;;;;;;;4987816;28;20274;-81
2021/06/04 00:08:36;;;;;;;3.00;2.70;;;;;;;;;;4989570;28;20557;-82
2021/06/04 00:11:10;;;;;;;3.95;2.70;;;;;;;;;;4999732;28;20245;-81
2021/06/04 00:13:41;;;;;;;3.38;2.60;;;;;;;;;;5006220;28;20311;-81
2021/06/04 00:16:11;;;;;;;3.42;3.13;;;;;;;;;;5003178;28;20180;-82
2021/06/04 00:18:38;;;;;;;3.55;2.90;;;;;;;;;;5002339;28;20741;-81
2021/06/04 00:21:08;;;;;;;3.88;2.90;;;;;;;;;;4999273;28;20200;-83
2021/06/04 00:23:33;;;;;;;3.58;3.28;;;;;;;;;;5002130;28;20214;-81
2021/06/04 00:25:59;;;;;;;5.22;3.40;;;;;;;;;;5002775;28;20192;-81
2021/06/04 00:28:26;;;;;;;3.67;3.35;;;;;;;;;;5004903;28;20275;-82
2021/06/04 00:30:54;;;;;;;5.75;3.60;;;;;;;;;;5002886;28;20183;-82
2021/06/04 00:33:20;;;;;;;6.10;3.22;;;;;;;;;;5002644;28;20219;-81
2021/06/04 00:35:48;;;;;;;6.00;3.35;;;;;;;;;;5002509;28;20284;-81
2021/06/04 00:38:14;;;;;;;5.60;3.40;;;;;;;;;;5005726;28;20359;-81
2021/06/04 00:40:43;;;;;;;6.40;4.05;;;;;;;;;;5004035;28;20215;-81
2021/06/04 00:43:10;;;;;;;8.18;3.70;;;;;;;;;;5006722;28;20203;-81
2021/06/04 00:45:38;;;;;;;5.65;3.83;;;;;;;;;;5006807;28;20183;-81
2021/06/04 00:48:04;;;;;;;3.65;3.22;;;;;;;;;;5006252;28;20207;-82
2021/06/04 00:50:39;;;;;;;7.65;3.88;;;;;;;;;;5007624;28;20276;-82
2021/06/04 00:53:05;;;;;;;6.00;3.53;;;;;;;;;;4997529;28;20219;-82
2021/06/04 00:55:31;;;;;;;3.72;3.42;;;;;;;;;;5003030;28;20574;-82
2021/06/04 00:57:56;;;;;;;5.00;3.60;;;;;;;;;;5002329;28;20187;-82
2021/06/04 01:00:30;;;;;;;6.00;3.53;;;;;;;;;;5007198;28;20196;-81
2021/06/04 01:02:58;;;;;;;3.97;3.58;;;;;;;;;;5000115;28;20195;-81
2021/06/04 01:05:27;;;;;;;5.43;3.83;;;;;;;;;;5003839;28;20333;-82
2021/06/04 01:08:41;;;;;;;5.40;3.80;;;;;;;;;;5003746;28;20277;-82
2021/06/04 01:11:28;;;;;;;3.63;3.33;;;;;;;;;;4895822;29;20575;-81
2021/06/04 01:14:22;;;;;;;3.88;3.50;;;;;;;;;;5005626;28;20639;-81
2021/06/04 01:16:59;;;;;;;4.35;3.88;;;;;;;;;;5005164;28;20187;-82
2021/06/04 01:19:41;;;;;;;5.15;3.70;;;;;;;;;;4987630;28;20555;-82
2021/06/04 01:22:12;;;;;;;4.70;4.30;;;;;;;;;;5006399;28;20283;-79
2021/06/04 01:24:58;;;;;;;4.30;3.88;;;;;;;;;;5004858;28;20190;-81
2021/06/04 01:27:33;;;;;;;5.95;4.30;;;;;;;;;;5003730;28;20651;-82
2021/06/04 01:30:32;;;;;;;4.50;3.95;;;;;;;;;;5005794;28;20179;-83
2021/06/04 01:33:07;;;;;;;5.53;4.38;;;;;;;;;;4996950;28;20250;-81
2021/06/04 01:35:46;;;;;;;8.32;4.53;;;;;;;;;;5002699;28;20336;-81
2021/06/04 01:38:15;;;;;;;6.50;4.75;;;;;;;;;;5005678;28;20327;-81
2021/06/04 01:40:45;;;;;;;5.78;4.82;;;;;;;;;;5006804;28;20199;-82
2021/06/04 01:43:22;;;;;;;5.35;4.55;;;;;;;;;;5006376;28;20245;-81
2021/06/04 01:45:56;;;;;;;5.00;4.50;;;;;;;;;;5000481;28;20223;-81
2021/06/04 01:48:30;;;;;;;5.93;4.65;;;;;;;;;;5003428;28;20694;-81
2021/06/04 01:51:03;;;;;;;4.95;4.55;;;;;;;;;;5001368;28;20193;-82
2021/06/04 01:53:35;;;;;;;5.15;4.65;;;;;;;;;;4999166;28;20219;-82
2021/06/04 01:56:17;;;;;;;6.65;5.03;;;;;;;;;;5004689;28;20184;-82
2021/06/04 01:58:50;;;;;;;6.00;4.60;;;;;;;;;;5008156;28;20241;-83
2021/06/04 02:01:21;;;;;;;6.37;4.80;;;;;;;;;;4999194;28;20223;-83
2021/06/04 02:03:48;;;;;;;6.03;4.60;;;;;;;;;;5006363;28;20214;-83
2021/06/04 02:06:13;;;;;;;6.40;4.90;;;;;;;;;;5004951;28;20188;-81
2021/06/04 02:08:59;;;;;;;6.68;4.95;;;;;;;;;;4986277;28;20200;-82
2021/06/04 02:11:28;;;;;;;5.55;4.95;;;;;;;;;;5006287;28;20212;-82
2021/06/04 02:13:55;;;;;;;6.30;5.70;;;;;;;;;;5003566;28;20211;-82
2021/06/04 02:16:32;;;;;;;5.43;4.93;;;;;;;;;;4999830;28;20188;-82
2021/06/04 02:19:16;;;;;;;5.78;5.22;;;;;;;;;;5004182;28;20183;-82
2021/06/04 02:21:52;;;;;;;6.68;5.63;;;;;;;;;;5002874;28;20185;-82
2021/06/04 02:24:37;;;;;;;5.65;5.05;;;;;;;;;;5005217;28;20199;-82
2021/06/04 02:27:09;;;;;;;5.90;5.10;;;;;;;;;;5000859;28;20262;-79
2021/06/04 02:29:42;;;;;;;8.13;5.55;;;;;;;;;;5005839;28;20226;-82
2021/06/04 02:32:18;;;;;;;7.05;5.32;;;;;;;;;;5003961;28;20210;-81
2021/06/04 02:34:48;;;;;;;7.57;5.25;;;;;;;;;;5003296;28;20529;-80
2021/06/04 02:37:30;;;;;;;7.45;5.10;;;;;;;;;;5003803;28;20188;-82
2021/06/04 02:40:25;;;;;;;8.48;5.63;;;;;;;;;;4996378;28;20527;-80
2021/06/04 02:43:00;;;;;;;6.70;5.53;;;;;;;;;;4995365;28;20238;-82
2021/06/04 02:45:45;;;;;;;6.63;5.05;;;;;;;;;;4993637;28;20179;-82
2021/06/04 02:48:17;;;;;;;7.40;5.28;;;;;;;;;;5008456;28;20175;-82
2021/06/04 02:50:48;;;;;;;5.50;5.00;;;;;;;;;;5005593;28;20216;-81
2021/06/04 02:53:38;;;;;;;7.30;5.47;;;;;;;;;;5000423;28;20301;-83
2021/06/04 02:56:20;;;;;;;5.97;5.35;;;;;;;;;;5002039;28;20655;-83
2021/06/04 02:58:57;;;;;;;6.13;5.25;;;;;;;;;;5003570;28;20191;-81
2021/06/04 03:01:24;;;;;;;5.53;5.03;;;;;;;;;;5004978;28;20198;-82
2021/06/04 03:03:52;;;;;;;7.32;5.60;;;;;;;;;;5004245;28;20690;-81
2021/06/04 03:06:24;;;;;;;8.18;5.80;;;;;;;;;;4994550;28;20192;-82
2021/06/04 03:08:51;;;;;;;7.32;5.53;;;;;;;;;;5005328;28;20195;-82
2021/06/04 03:11:19;;;;;;;6.35;5.18;;;;;;;;;;5004341;28;20223;-82
2021/06/04 03:13:45;;;;;;;8.52;6.30;;;;;;;;;;5008892;28;20218;-81
2021/06/04 03:16:19;;;;;;;6.82;5.82;;;;;;;;;;4988650;28;20279;-81
2021/06/04 03:18:49;;;;;;;5.80;5.05;;;;;;;;;;4997289;28;20193;-83
2021/06/04 03:21:30;;;;;;;7.75;5.50;;;;;;;;;;5003384;28;20633;-82
2021/06/04 03:23:57;;;;;;;9.95;5.72;;;;;;;;;;5002787;28;20264;-82
2021/06/04 03:26:26;;;;;;;11.05;5.70;;;;;;;;;;5001512;28;20707;-83
2021/06/04 03:28:54;;;;;;;6.80;5.28;;;;;;;;;;5001817;28;20187;-82
2021/06/04 03:31:24;;;;;;;8.85;5.25;;;;;;;;;;4996459;28;20179;-82
2021/06/04 03:33:50;;;;;;;8.60;5.15;;;;;;;;;;4985543;28;20207;-83
2021/06/04 03:36:20;;;;;;;7.50;5.38;;;;;;;;;;4997626;28;20198;-81
2021/06/04 03:38:49;;;;;;;10.25;6.30;;;;;;;;;;5006951;28;20273;-82
2021/06/04 03:41:17;;;;;;;7.65;6.28;;;;;;;;;;4990483;28;20536;-83
2021/06/04 03:43:44;;;;;;;7.60;5.88;;;;;;;;;;4997725;28;20490;-82
2021/06/04 03:46:11;;;;;;;7.50;5.78;;;;;;;;;;4988066;28;20195;-81
2021/06/04 03:48:37;;;;;;;6.25;5.65;;;;;;;;;;5006858;28;20210;-82
2021/06/04 03:51:11;;;;;;;10.73;6.28;;;;;;;;;;5006088;28;20187;-83
2021/06/04 03:53:37;;;;;;;25.45;6.70;;;;;;;;;;4995824;28;20214;-83
2021/06/04 03:56:06;;;;;;;6.40;5.53;;;;;;;;;;4999504;28;20195;-83
2021/06/04 03:58:31;;;;;;;7.97;5.28;;;;;;;;;;4988551;28;20282;-82
2021/06/04 04:01:05;;;;;;;7.65;5.57;;;;;;;;;;4996967;28;20282;-82
2021/06/04 04:03:33;;;;;;;6.53;5.60;;;;;;;;;;5007102;28;20199;-82
2021/06/04 04:05:58;;;;;;;7.63;5.40;;;;;;;;;;5001909;28;20257;-82
2021/06/04 04:08:26;;;;;;;9.50;5.50;;;;;;;;;;5004501;28;20655;-81
2021/06/04 04:10:53;;;;;;;6.45;5.85;;;;;;;;;;5003760;28;20179;-83
2021/06/04 04:13:19;;;;;;;6.30;5.35;;;;;;;;;;5005904;28;20211;-81
2021/06/04 04:15:46;;;;;;;6.68;5.20;;;;;;;;;;5011628;28;20179;-81
2021/06/04 04:18:12;;;;;;;5.85;5.22;;;;;;;;;;5010009;28;20187;-82
2021/06/04 04:20:46;;;;;;;6.22;5.55;;;;;;;;;;5003256;28;20224;-81
2021/06/04 04:23:19;;;;;;;6.63;5.82;;;;;;;;;;5010044;28;20303;-82
2021/06/04 04:25:45;;;;;;;7.50;5.93;;;;;;;;;;5007372;28;20179;-81
2021/06/04 04:28:14;;;;;;;6.65;5.97;;;;;;;;;;5012268;28;20179;-82
2021/06/04 04:30:40;;;;;;;6.82;5.88;;;;;;;;;;4992367;28;20287;-82
2021/06/04 04:33:06;;;;;;;9.52;5.90;;;;;;;;;;5008759;28;20538;-81
2021/06/04 04:35:36;;;;;;;7.13;6.25;;;;;;;;;;5008537;28;20187;-82
2021/06/04 04:38:07;;;;;;;7.22;5.90;;;;;;;;;;5004313;28;20192;-81
2021/06/04 04:40:37;;;;;;;9.30;5.78;;;;;;;;;;5009509;28;20184;-81
2021/06/04 04:43:04;;;;;;;6.65;5.95;;;;;;;;;;5002547;28;20211;-81
2021/06/04 04:45:31;;;;;;;7.72;6.07;;;;;;;;;;5004564;28;20270;-83
2021/06/04 04:48:01;;;;;;;7.03;6.05;;;;;;;;;;5001245;28;20655;-80
2021/06/04 04:50:27;;;;;;;6.72;6.00;;;;;;;;;;4992748;28;20191;-83
2021/06/04 04:52:54;;;;;;;7.88;6.50;;;;;;;;;;5010749;28;20211;-84
2021/06/04 04:55:21;;;;;;;7.93;6.07;;;;;;;;;;5007703;28;20187;-80
2021/06/04 04:57:46;;;;;;;8.70;6.80;;;;;;;;;;5004692;28;20540;-83
2021/06/04 05:00:17;;;;;;;7.47;6.43;;;;;;;;;;5006981;28;20195;-81
2021/06/04 05:02:42;;;;;;;8.70;7.07;;;;;;;;;;4988793;28;20238;-81
2021/06/04 05:05:10;;;;;;;7.90;6.85;;;;;;;;;;5010794;28;20225;-81
2021/06/04 05:07:35;;;;;;;11.18;7.05;;;;;;;;;;5000665;28;20558;-83
2021/06/04 05:10:01;;;;;;;9.13;7.40;;;;;;;;;;5006897;28;20193;-81
2021/06/04 05:12:26;;;;;;;7.30;6.45;;;;;;;;;;5005858;28;20281;-82
2021/06/04 05:14:52;;;;;;;10.38;7.90;;;;;;;;;;4989172;28;20226;-82
2021/06/04 05:17:17;;;;;;;9.07;7.43;;;;;;;;;;4989426;28;20203;-81
2021/06/04 05:19:46;;;;;;;11.90;7.07;;;;;;;;;;5006558;28;20187;-81
2021/06/04 05:22:12;;;;;;;11.65;7.28;;;;;;;;;;5007529;28;20218;-82
2021/06/04 05:24:38;;;;;;;12.07;7.65;;;;;;;;;;5008308;28;20191;-83
2021/06/04 05:27:04;;;;;;;12.07;8.13;;;;;;;;;;5006116;28;20183;-83
2021/06/04 05:29:29;;;;;;;8.70;7.82;;;;;;;;;;4998403;28;20192;-81
2021/06/04 05:31:54;;;;;;;13.50;8.18;;;;;;;;;;5002777;28;20679;-81
2021/06/04 05:34:20;;;;;;;13.57;7.78;;;;;;;;;;5006098;28;20699;-83
2021/06/04 05:36:48;;;;;;;13.38;8.05;;;;;;;;;;5009056;28;20580;-80
2021/06/04 05:39:17;;;;;;;14.10;8.07;;;;;;;;;;5007943;28;20179;-83
2021/06/04 05:41:47;;;;;;;10.90;7.97;;;;;;;;;;5001479;28;20187;-81
2021/06/04 05:44:14;;;;;;;10.95;7.50;;;;;;;;;;4996733;28;20230;-81
2021/06/04 05:46:42;;;;;;;12.15;7.95;;;;;;;;;;4998613;28;20234;-81
2021/06/04 05:49:07;;;;;;;11.20;7.72;;;;;;;;;;4997832;28;20648;-80
2021/06/04 05:51:33;;;;;;;10.77;8.57;;;;;;;;;;5002105;28;20195;-80
2021/06/04 05:53:58;;;;;;;11.25;8.43;;;;;;;;;;5007899;28;20577;-81
2021/06/04 05:56:25;;;;;;;11.98;8.80;;;;;;;;;;5001461;28;20195;-79
2021/06/04 05:58:52;;;;;;;10.63;8.57;;;;;;;;;;5001114;28;20193;-81
2021/06/04 06:01:21;;;;;;;11.38;8.05;;;;;;;;;;4991688;28;20184;-80
2021/06/04 06:03:47;;;;;;;13.07;8.00;;;;;;;;;;5005060;28;20203;-81
2021/06/04 06:06:13;;;;;;;8.80;7.32;;;;;;;;;;4988608;28;20241;-81
2021/06/04 06:08:40;;;;;;;12.45;7.55;;;;;;;;;;5006053;28;20198;-82
2021/06/04 06:11:07;;;;;;;12.77;7.47;;;;;;;;;;5001677;28;20195;-81
2021/06/04 06:13:32;;;;;;;15.48;7.07;;;;;;;;;;5002893;28;20212;-82
2021/06/04 06:15:58;;;;;;;12.52;7.00;;;;;;;;;;5000849;28;20707;-81
2021/06/04 06:18:25;;;;;;;9.07;5.93;;;;;;;;;;4994133;28;20220;-81
2021/06/04 06:20:51;;;;;;;9.98;6.68;;;;;;;;;;5001511;28;20183;-83
2021/06/04 06:23:20;;;;;;;9.93;6.40;;;;;;;;;;5005556;28;20207;-82
2021/06/04 06:25:50;;;;;;;7.82;6.35;;;;;;;;;;5007101;28;20298;-81
2021/06/04 06:28:18;;;;;;;13.18;5.72;;;;;;;;;;5007287;28;20678;-83
2021/06/04 06:30:44;;;;;;;9.40;6.60;;;;;;;;;;5001804;28;20292;-82
2021/06/04 06:33:09;;;;;;;12.95;6.68;;;;;;;;;;5005189;28;20208;-84
2021/06/04 06:35:57;;;;;;;8.50;6.70;;;;;;;;;;4998001;28;20195;-82
2021/06/04 06:38:24;;;;;;;11.45;6.63;;;;;;;;;;5005851;28;20186;-83
2021/06/04 06:40:50;;;;;;;7.22;6.50;;;;;;;;;;4995654;28;20215;-83
2021/06/04 06:43:18;;;;;;;8.27;6.68;;;;;;;;;;5002133;28;20212;-84
2021/06/04 06:45:44;;;;;;;10.73;6.53;;;;;;;;;;5005164;28;20403;-83
2021/06/04 06:48:12;;;;;;;8.02;5.95;;;;;;;;;;5008283;28;20337;-85
2021/06/04 06:50:39;;;;;;;8.77;6.45;;;;;;;;;;5007173;28;20314;-86
2021/06/04 06:53:06;;;;;;;7.95;5.90;;;;;;;;;;5005938;28;20306;-86
2021/06/04 06:55:34;;;;;;;9.35;5.82;;;;;;;;;;5005656;28;20697;-83
2021/06/04 06:58:00;;;;;;;7.28;5.63;;;;;;;;;;5004667;28;20191;-84
2021/06/04 07:00:41;;;;;;;14.77;6.55;;;;;;;;;;4990242;28;20190;-83
2021/06/04 07:03:09;;;;;;;8.75;6.13;;;;;;;;;;5003071;28;20199;-82
2021/06/04 07:05:38;;;;;;;11.88;5.63;;;;;;;;;;5002765;28;20222;-83
2021/06/04 07:08:06;;;;;;;6.68;5.95;;;;;;;;;;4991464;28;20191;-83
2021/06/04 07:10:32;;;;;;;9.38;6.75;;;;;;;;;;4998016;28;21362;-82
2021/06/04 07:13:00;;;;;;;8.05;5.47;;;;;;;;;;5004771;28;20234;-84
2021/06/04 07:15:27;;;;;;;6.20;5.00;;;;;;;;;;5002407;28;20199;-82
2021/06/04 07:17:58;;;;;;;5.72;4.63;;;;;;;;;;5007354;28;20211;-83
2021/06/04 07:20:26;;;;;;;6.68;4.95;;;;;;;;;;5007200;28;20613;-82
2021/06/04 07:22:52;;;;;;;7.18;5.25;;;;;;;;;;5002749;28;20207;-82
2021/06/04 07:25:21;;;;;;;7.00;5.40;;;;;;;;;;4986790;28;20265;-82
2021/06/04 07:27:48;;;;;;;8.60;5.82;;;;;;;;;;5006650;28;20241;-82
2021/06/04 07:30:20;;;;;;;5.50;5.00;;;;;;;;;;5006607;28;20191;-82
2021/06/04 07:32:46;;;;;;;8.55;5.43;;;;;;;;;;5007031;28;20227;-83
2021/06/04 07:35:14;;;;;;;7.68;6.25;;;;;;;;;;4991057;28;20214;-83
2021/06/04 07:37:40;;;;;;;6.82;6.18;;;;;;;;;;5005894;28;20198;-83
2021/06/04 07:40:09;;;;;;;6.30;5.20;;;;;;;;;;4991652;28;20195;-82
2021/06/04 07:42:35;;;;;;;6.65;6.00;;;;;;;;;;5006118;28;20290;-82
2021/06/04 07:45:00;;;;;;;7.95;5.90;;;;;;;;;;4992421;28;20282;-82
2021/06/04 07:47:26;;;;;;;8.77;5.70;;;;;;;;;;5000276;28;20198;-83
2021/06/04 07:49:51;;;;;;;9.20;6.45;;;;;;;;;;5006749;28;20198;-81
2021/06/04 07:52:16;;;;;;;9.95;6.90;;;;;;;;;;5014422;28;20486;-80
2021/06/04 07:54:42;;;;;;;10.07;6.18;;;;;;;;;;5014122;28;20481;-81
2021/06/04 07:57:07;;;;;;;6.18;5.50;;;;;;;;;;5009785;28;20837;-88
2021/06/04 07:59:33;;;;;;;6.80;6.20;;;;;;;;;;5016535;28;20203;-88
2021/06/04 08:01:58;;;;;;;11.05;5.75;;;;;;;;;;4999557;28;20198;-81
2021/06/04 08:04:24;;;;;;;7.65;5.88;;;;;;;;;;5015083;28;20187;-85
2021/06/04 08:06:52;;;;;;;8.82;6.95;;;;;;;;;;5008595;28;21627;-87
2021/06/04 08:09:17;;;;;;;8.43;7.53;;;;;;;;;;5014479;28;20190;-87
2021/06/04 08:11:56;;;;;;;8.27;7.30;;;;;;;;;;5013065;28;20829;-82
2021/06/04 08:14:23;;;;;;;8.07;7.35;;;;;;;;;;5017062;28;20609;-82
2021/06/04 08:16:50;;;;;;;10.10;7.80;;;;;;;;;;5005528;28;20553;-82
2021/06/04 08:19:17;;;;;;;8.75;7.85;;;;;;;;;;5006173;28;20195;-82
2021/06/04 08:21:46;;;;;;;11.90;8.27;;;;;;;;;;5008160;28;20237;-81
2021/06/04 08:24:14;;;;;;;10.60;7.28;;;;;;;;;;5014134;28;20734;-86
2021/06/04 08:26:41;;;;;;;9.65;8.65;;;;;;;;;;5005226;28;20194;-81
2021/06/04 08:29:09;;;;;;;12.05;9.57;;;;;;;;;;5012069;28;20197;-80
2021/06/04 08:31:37;;;;;;;10.10;9.00;;;;;;;;;;5010610;28;20187;-80
2021/06/04 08:34:03;;;;;;;12.02;10.18;;;;;;;;;;5012443;28;20276;-81
2021/06/04 08:36:32;;;;;;;10.63;8.77;;;;;;;;;;5012140;28;20201;-80
2021/06/04 08:39:00;;;;;;;10.77;9.68;;;;;;;;;;4996050;28;20194;-81
2021/06/04 08:41:36;;;;;;;10.05;8.32;;;;;;;;;;5011282;28;20198;-81
2021/06/04 08:44:19;;;;;;;10.25;8.57;;;;;;;;;;5006053;28;20194;-81
2021/06/04 08:47:07;;;;;;;8.95;7.70;;;;;;;;;;5010404;28;20193;-80
2021/06/04 08:50:01;;;;;;;11.05;7.13;;;;;;;;;;5011289;28;20213;-80
2021/06/04 08:52:39;;;;;;;7.28;6.70;;;;;;;;;;5009647;28;20214;-80
2021/06/04 08:55:33;;;;;;;7.57;6.78;;;;;;;;;;5012197;28;20601;-80
2021/06/04 08:58:18;;;;;;;8.20;7.07;;;;;;;;;;5009265;28;20272;-80
2021/06/04 09:00:51;;;;;;;7.95;7.28;;;;;;;;;;5008574;28;21578;-80
2021/06/04 09:03:22;;;;;;;8.70;8.00;;;;;;;;;;5010906;28;20209;-81
2021/06/04 09:05:55;;;;;;;8.57;7.82;;;;;;;;;;5008023;28;20217;-80
2021/06/04 09:08:32;;;;;;;8.55;7.57;;;;;;;;;;5001837;28;20183;-80
2021/06/04 09:11:03;;;;;;;8.25;7.55;;;;;;;;;;4986042;28;20608;-80
2021/06/04 09:13:32;;;;;;;9.25;7.97;;;;;;;;;;5001670;28;20217;-80
2021/06/04 09:16:07;;;;;;;11.02;8.50;;;;;;;;;;5006408;28;20225;-80
2021/06/04 09:18:42;;;;;;;8.55;7.95;;;;;;;;;;4992508;28;20262;-80
2021/06/04 09:21:14;;;;;;;8.77;8.02;;;;;;;;;;5007029;28;20213;-80
2021/06/04 09:23:42;;;;;;;9.00;8.20;;;;;;;;;;4997098;28;20242;-80
2021/06/04 09:26:13;;;;;;;8.43;7.72;;;;;;;;;;4999952;28;20187;-80
2021/06/04 09:28:47;;;;;;;8.60;7.82;;;;;;;;;;5000545;28;20186;-81
2021/06/04 09:31:42;;;;;;;9.30;8.40;;;;;;;;;;5007958;28;20222;-80
2021/06/04 09:34:24;;;;;;;8.75;7.85;;;;;;;;;;5000785;28;20297;-81
2021/06/04 09:36:56;;;;;;;8.43;7.82;;;;;;;;;;4998693;28;20233;-81
2021/06/04 09:39:35;;;;;;;8.40;7.72;;;;;;;;;;5005080;28;20194;-79
2021/06/04 09:42:23;;;;;;;7.18;6.57;;;;;;;;;;5006175;28;20188;-80
2021/06/04 09:45:21;;;;;;;8.23;6.95;;;;;;;;;;5006795;28;20182;-80
2021/06/04 09:47:59;;;;;;;6.95;6.25;;;;;;;;;;5007961;28;20229;-79
2021/06/04 09:50:49;;;;;;;7.88;7.10;;;;;;;;;;5007606;28;20202;-79
2021/06/04 09:53:20;;;;;;;7.30;6.70;;;;;;;;;;5004223;28;20599;-78
2021/06/04 09:56:07;;;;;;;7.43;6.72;;;;;;;;;;5005524;28;20603;-79
2021/06/04 09:58:48;;;;;;;7.10;6.47;;;;;;;;;;4997760;28;20535;-78
2021/06/04 10:01:15;;;;;;;6.85;6.30;;;;;;;;;;5005706;28;20945;-78
2021/06/04 10:03:41;;;;;;;7.28;6.78;;;;;;;;;;5010326;28;20194;-78
2021/06/04 10:06:09;;;;;;;6.67;5.83;;;;;;;;;;5003455;28;20698;-78
2021/06/04 10:08:44;;;;;;;6.38;5.80;;;;;;;;;;4991732;28;20195;-79
2021/06/04 10:11:20;;;;;;;7.55;6.70;;;;;;;;;;5005266;28;20508;-78
2021/06/04 10:14:13;;;;;;;7.45;6.85;;;;;;;;;;5008830;28;20238;-78
2021/06/04 10:19:35;;;;;;;7.78;7.18;;;;;;;;;;5000374;28;20194;-79
2021/06/04 10:22:09;;;;;;;6.32;5.80;;;;;;;;;;5001811;28;20215;-78
2021/06/04 10:24:40;;;;;;;5.72;5.32;;;;;;;;;;5007879;28;20178;-79
2021/06/04 10:27:10;;;;;;;6.13;5.63;;;;;;;;;;5007785;28;20286;-79
2021/06/04 10:29:35;;;;;;;6.07;5.28;;;;;;;;;;5005804;28;20190;-79
2021/06/04 10:32:17;;;;;;;6.40;5.90;;;;;;;;;;5003538;28;20198;-79
2021/06/04 10:34:52;;;;;;;5.90;5.35;;;;;;;;;;5005266;28;20242;-78
2021/06/04 10:37:36;;;;;;;6.57;5.55;;;;;;;;;;5008325;28;20725;-79
2021/06/04 10:40:30;;;;;;;5.07;4.65;;;;;;;;;;5007665;28;20635;-79
2021/06/04 10:43:19;;;;;;;7.97;6.32;;;;;;;;;;5008402;28;20648;-78
2021/06/04 10:45:55;;;;;;;5.82;5.28;;;;;;;;;;5006542;28;20639;-79
2021/06/04 10:48:42;;;;;;;6.32;5.43;;;;;;;;;;5006245;28;20186;-79
2021/06/04 10:51:16;;;;;;;8.77;5.20;;;;;;;;;;4997104;28;20194;-78
2021/06/04 10:53:48;;;;;;;6.10;5.22;;;;;;;;;;5003834;28;20644;-79
2021/06/04 10:56:30;;;;;;;6.45;5.32;;;;;;;;;;5001477;28;20241;-78
2021/06/04 10:59:13;;;;;;;6.70;5.95;;;;;;;;;;5007057;28;20214;-79
2021/06/04 11:02:00;;;;;;;7.03;5.55;;;;;;;;;;4989855;28;20265;-79
2021/06/04 11:04:42;;;;;;;6.65;5.38;;;;;;;;;;4993226;28;20264;-78
2021/06/04 11:07:16;;;;;;;6.53;5.78;;;;;;;;;;5004078;28;20278;-78
2021/06/04 11:09:59;;;;;;;7.53;6.10;;;;;;;;;;5004677;28;20193;-79
2021/06/04 11:12:44;;;;;;;6.65;5.78;;;;;;;;;;5002394;28;20213;-78
2021/06/04 11:15:19;;;;;;;6.38;5.78;;;;;;;;;;4994360;28;20198;-79
2021/06/04 11:18:10;;;;;;;10.80;6.47;;;;;;;;;;5003798;28;20191;-79
2021/06/04 11:20:41;;;;;;;7.95;5.85;;;;;;;;;;5005309;28;20332;-79
2021/06/04 11:23:15;;;;;;;5.68;5.07;;;;;;;;;;5001122;28;20240;-80
2021/06/04 11:26:04;;;;;;;8.93;6.03;;;;;;;;;;4998691;28;20201;-79
2021/06/04 11:28:41;;;;;;;7.10;6.18;;;;;;;;;;5005588;28;20183;-79
2021/06/04 11:31:12;;;;;;;8.07;5.95;;;;;;;;;;4999600;28;20462;-80
2021/06/04 11:33:40;;;;;;;5.88;5.38;;;;;;;;;;5004714;28;20287;-79
2021/06/04 11:36:13;;;;;;;6.65;5.97;;;;;;;;;;5005181;28;20512;-79
2021/06/04 11:38:52;;;;;;;7.05;6.45;;;;;;;;;;5008904;28;20264;-89
2021/06/04 11:41:28;;;;;;;6.93;6.05;;;;;;;;;;5009368;28;20191;-88
2021/06/04 11:44:02;;;;;;;6.30;5.45;;;;;;;;;;5007556;28;20210;-89
2021/06/04 11:46:30;;;;;;;6.88;5.40;;;;;;;;;;5001603;28;20242;-87
2021/06/04 11:49:09;;;;;;;8.35;6.03;;;;;;;;;;4987346;28;20202;-81
2021/06/04 11:51:41;;;;;;;6.03;5.38;;;;;;;;;;5009487;28;20183;-86
2021/06/04 11:54:31;;;;;;;8.68;6.38;;;;;;;;;;5009389;28;20206;-80
2021/06/04 11:57:28;;;;;;;6.82;6.07;;;;;;;;;;5005075;28;20196;-84
2021/06/04 12:00:25;;;;;;;6.75;6.05;;;;;;;;;;5000248;28;20852;-89
2021/06/04 12:03:08;;;;;;;11.32;6.47;;;;;;;;;;5001432;28;20207;-79
2021/06/04 12:05:44;;;;;;;13.65;6.93;;;;;;;;;;5000471;28;20203;-86
2021/06/04 12:08:24;;;;;;;9.73;7.55;;;;;;;;;;5004269;28;20183;-83
2021/06/04 12:10:49;;;;;;;8.80;6.40;;;;;;;;;;5005243;28;20801;-83
2021/06/04 12:13:36;;;;;;;7.13;6.43;;;;;;;;;;5007588;28;20298;-84
2021/06/04 12:16:29;;;;;;;8.98;7.72;;;;;;;;;;4988258;28;20188;-83
2021/06/04 12:19:02;;;;;;;10.98;6.40;;;;;;;;;;5004985;28;20202;-80
2021/06/04 12:21:40;;;;;;;21.20;6.63;;;;;;;;;;5003530;28;20180;-79
2021/06/04 12:24:21;;;;;;;10.88;6.72;;;;;;;;;;5003315;28;20234;-81
2021/06/04 12:26:53;;;;;;;9.43;6.43;;;;;;;;;;5000854;28;20195;-82
2021/06/04 12:29:26;;;;;;;8.80;6.55;;;;;;;;;;5003103;28;20261;-79
2021/06/04 12:32:10;;;;;;;10.23;6.68;;;;;;;;;;5005177;28;20188;-82
2021/06/04 12:34:38;;;;;;;9.35;6.45;;;;;;;;;;5009055;28;20207;-82
2021/06/04 12:37:09;;;;;;;8.57;6.25;;;;;;;;;;4992950;28;20191;-83
2021/06/04 12:39:45;;;;;;;7.03;6.15;;;;;;;;;;5010278;28;20238;-81
2021/06/04 12:42:13;;;;;;;6.57;6.07;;;;;;;;;;5009800;28;20660;-79
2021/06/04 12:44:50;;;;;;;6.65;5.63;;;;;;;;;;5002781;28;20250;-80
2021/06/04 12:47:21;;;;;;;6.70;5.97;;;;;;;;;;5004880;28;20191;-80
2021/06/04 12:49:47;;;;;;;6.55;5.95;;;;;;;;;;5010742;28;20211;-81
2021/06/04 12:52:19;;;;;;;20.40;7.03;;;;;;;;;;5008886;28;20203;-81
2021/06/04 12:54:47;;;;;;;6.28;5.68;;;;;;;;;;5012279;28;20253;-80
2021/06/04 12:57:23;;;;;;;9.10;6.38;;;;;;;;;;4989537;28;20202;-80
2021/06/04 12:59:51;;;;;;;6.57;6.07;;;;;;;;;;5005944;28;20195;-80
2021/06/04 13:02:23;;;;;;;7.47;6.82;;;;;;;;;;5006011;28;20269;-80
2021/06/04 13:04:52;;;;;;;8.40;6.30;;;;;;;;;;5012414;28;20190;-81
2021/06/04 13:07:25;;;;;;;7.10;6.50;;;;;;;;;;5009111;28;20270;-81
2021/06/04 13:10:21;;;;;;;7.07;6.47;;;;;;;;;;5005454;28;20196;-80
2021/06/04 13:12:47;;;;;;;6.85;6.35;;;;;;;;;;5004791;28;20213;-81
2021/06/04 13:15:28;;;;;;;7.60;5.70;;;;;;;;;;5010510;28;20183;-82
2021/06/04 13:18:02;;;;;;;5.90;5.32;;;;;;;;;;5011124;28;20186;-82
2021/06/04 13:20:29;;;;;;;7.05;5.72;;;;;;;;;;4987055;28;20650;-82
2021/06/04 13:23:28;;;;;;;6.28;5.70;;;;;;;;;;5009037;28;20215;-82
2021/06/04 13:26:05;;;;;;;6.07;5.53;;;;;;;;;;4991076;28;20233;-82
2021/06/04 13:28:41;;;;;;;6.32;5.45;;;;;;;;;;4991306;28;20195;-80
2021/06/04 13:31:15;;;;;;;5.40;5.00;;;;;;;;;;5009603;28;20182;-83
2021/06/04 13:33:45;;;;;;;6.18;5.63;;;;;;;;;;5010233;28;20211;-84
2021/06/04 13:36:11;;;;;;;8.90;5.28;;;;;;;;;;5005507;28;20179;-84
2021/06/04 13:38:44;;;;;;;6.18;5.68;;;;;;;;;;4993366;28;20191;-80
2021/06/04 13:41:21;;;;;;;5.78;5.28;;;;;;;;;;5006388;28;20218;-81
2021/06/04 13:43:48;;;;;;;5.68;5.07;;;;;;;;;;5000220;28;20191;-81
2021/06/04 13:46:18;;;;;;;4.95;4.55;;;;;;;;;;5003451;28;20194;-82
2021/06/04 13:49:03;;;;;;;8.95;5.32;;;;;;;;;;5007627;28;20191;-81
2021/06/04 13:51:50;;;;;;;5.72;5.20;;;;;;;;;;5002500;28;20601;-81
2021/06/04 13:54:46;;;;;;;5.90;5.40;;;;;;;;;;5002268;28;20269;-82
2021/06/04 13:57:33;;;;;;;15.50;6.38;;;;;;;;;;5001782;28;20192;-80
2021/06/04 14:00:31;;;;;;;6.25;5.40;;;;;;;;;;4990187;28;20253;-81
2021/06/04 14:03:10;;;;;;;5.47;5.07;;;;;;;;;;4985947;28;20767;-80
2021/06/04 14:05:36;;;;;;;5.97;5.40;;;;;;;;;;4999815;28;20191;-80
2021/06/04 14:08:04;;;;;;;5.45;4.95;;;;;;;;;;5004536;28;20179;-81
2021/06/04 14:10:51;;;;;;;7.43;4.95;;;;;;;;;;5009454;28;20647;-81
2021/06/04 14:13:20;;;;;;;9.98;5.40;;;;;;;;;;5003011;28;20232;-83
2021/06/04 14:15:54;;;;;;;4.97;4.57;;;;;;;;;;5003466;28;20203;-83
2021/06/04 14:18:43;;;;;;;5.13;4.63;;;;;;;;;;5006724;28;20230;-83
2021/06/04 14:21:27;;;;;;;5.45;4.95;;;;;;;;;;5008562;28;20194;-83
2021/06/04 14:23:57;;;;;;;5.75;5.22;;;;;;;;;;5006840;28;20199;-84
2021/06/04 14:26:24;;;;;;;5.38;4.88;;;;;;;;;;4984894;28;20286;-84
2021/06/04 14:29:11;;;;;;;5.32;4.82;;;;;;;;;;5011700;28;20195;-83
2021/06/04 14:31:37;;;;;;;5.53;5.03;;;;;;;;;;4998985;28;20187;-83
2021/06/04 14:34:04;;;;;;;6.38;5.78;;;;;;;;;;4986403;28;20227;-80
2021/06/04 14:36:34;;;;;;;5.50;5.10;;;;;;;;;;5004161;28;20195;-80
2021/06/04 14:39:33;;;;;;;5.35;4.95;;;;;;;;;;5010091;28;20190;-81
2021/06/04 14:42:03;;;;;;;5.90;5.40;;;;;;;;;;4998628;28;20187;-80
2021/06/04 14:44:29;;;;;;;5.90;5.43;;;;;;;;;;4987008;28;20534;-80
2021/06/04 14:46:56;;;;;;;11.70;5.32;;;;;;;;;;5005663;28;20225;-82
2021/06/04 14:49:23;;;;;;;6.28;5.50;;;;;;;;;;5003359;28;20257;-78
2021/06/04 14:51:49;;;;;;;5.53;5.07;;;;;;;;;;4989439;28;20274;-78
2021/06/04 14:54:15;;;;;;;6.35;5.78;;;;;;;;;;5003077;28;20310;-78
2021/06/04 14:56:41;;;;;;;5.80;5.30;;;;;;;;;;4998275;28;20664;-77
2021/06/04 14:59:08;;;;;;;5.25;4.85;;;;;;;;;;4997020;28;20565;-80
2021/06/04 15:01:34;;;;;;;5.40;5.00;;;;;;;;;;4999495;28;20191;-80
2021/06/04 15:04:00;;;;;;;5.70;5.30;;;;;;;;;;5004190;28;20207;-80
2021/06/04 15:06:25;;;;;;;5.78;5.20;;;;;;;;;;5005759;28;20187;-80
2021/06/04 15:08:52;;;;;;;8.23;5.45;;;;;;;;;;5005013;28;20198;-80
2021/06/04 15:11:21;;;;;;;6.80;6.10;;;;;;;;;;5002677;28;20659;-79
2021/06/04 15:13:47;;;;;;;5.90;5.40;;;;;;;;;;5000240;28;20582;-79
2021/06/04 15:16:14;;;;;;;5.97;5.38;;;;;;;;;;4994778;28;20243;-80